Time;durP1;ratioP1;P1;durP2;ratioP2;P2;SDS_P1;SDS_P2;PMS_P1;PMS_P2;Temp;Humidity;BMP_temperature;BMP_pressure;BME280_temperature;BME280_humidity;BME280_pressure;Samples;Min_cycle;Max_cycle;Signal;HPM_P1;HPM_P2
2023/10/31 00:00:45;;;;;;;2.38;0.70;;;11.80;99.90;;;;;;5060184;28;20533;-74
2023/10/31 00:03:10;;;;;;;2.78;1.13;;;11.80;99.90;;;;;;5059151;28;20059;-74
2023/10/31 00:05:36;;;;;;;2.28;0.80;;;11.80;99.90;;;;;;5043709;28;20055;-74
2023/10/31 00:08:02;;;;;;;1.10;0.50;;;11.80;99.90;;;;;;5055442;28;20047;-74
2023/10/31 00:10:27;;;;;;;3.20;1.00;;;11.80;99.90;;;;;;5038812;28;20129;-74
2023/10/31 00:12:53;;;;;;;2.20;0.85;;;11.70;99.90;;;;;;5058557;28;20033;-74
2023/10/31 00:15:19;;;;;;;3.22;1.25;;;11.70;99.90;;;;;;5055275;28;20044;-74
2023/10/31 00:17:44;;;;;;;2.10;0.98;;;11.70;99.90;;;;;;5046007;28;20043;-74
2023/10/31 00:20:10;;;;;;;2.45;0.93;;;11.70;99.90;;;;;;5060083;28;20032;-74
2023/10/31 00:22:35;;;;;;;2.13;0.98;;;11.70;99.90;;;;;;5062852;28;20038;-75
2023/10/31 00:25:01;;;;;;;2.38;0.90;;;11.60;99.90;;;;;;5062200;28;20090;-74
2023/10/31 00:27:27;;;;;;;2.53;0.93;;;11.60;99.90;;;;;;5059267;28;20089;-74
2023/10/31 00:29:52;;;;;;;2.45;1.00;;;11.60;99.90;;;;;;5059245;28;20032;-75
2023/10/31 00:32:18;;;;;;;2.40;0.80;;;11.60;99.90;;;;;;5041830;28;20040;-74
2023/10/31 00:34:43;;;;;;;3.70;0.60;;;11.60;99.90;;;;;;5058498;28;20037;-74
2023/10/31 00:37:09;;;;;;;2.00;0.55;;;11.70;99.90;;;;;;5039924;28;20037;-74
2023/10/31 00:39:35;;;;;;;3.92;1.25;;;11.60;99.90;;;;;;5064929;28;20045;-74
2023/10/31 00:42:00;;;;;;;2.15;1.08;;;11.60;99.90;;;;;;5057573;28;20045;-74
2023/10/31 00:44:26;;;;;;;1.83;0.65;;;11.60;99.90;;;;;;5056489;28;20141;-75
2023/10/31 00:46:51;;;;;;;1.13;0.50;;;11.60;99.90;;;;;;5055492;28;20049;-74
2023/10/31 00:49:17;;;;;;;1.45;0.55;;;11.60;99.90;;;;;;5060155;28;20036;-74
2023/10/31 00:51:42;;;;;;;1.08;0.40;;;11.60;99.90;;;;;;5045148;28;20197;-74
2023/10/31 00:54:08;;;;;;;0.38;0.17;;;11.60;99.90;;;;;;5078189;28;20037;-74
2023/10/31 00:56:34;;;;;;;0.45;0.20;;;11.50;99.90;;;;;;5045743;28;20033;-74
2023/10/31 00:59:00;;;;;;;0.57;0.30;;;11.50;99.90;;;;;;5074310;28;20032;-74
2023/10/31 01:01:26;;;;;;;1.63;0.25;;;11.40;99.90;;;;;;5059380;28;20047;-74
2023/10/31 01:03:51;;;;;;;0.75;0.40;;;11.40;99.90;;;;;;5057841;28;20410;-74
2023/10/31 01:06:17;;;;;;;0.35;0.17;;;11.30;99.90;;;;;;5091017;28;20040;-74
2023/10/31 01:08:43;;;;;;;0.08;0.00;;;11.30;99.90;;;;;;5065215;28;20390;-74
2023/10/31 01:11:08;;;;;;;0.47;0.17;;;11.20;99.90;;;;;;5057979;28;20045;-74
2023/10/31 01:13:34;;;;;;;0.55;0.40;;;11.20;99.90;;;;;;5056229;28;20455;-74
2023/10/31 01:15:59;;;;;;;0.30;0.17;;;11.20;99.90;;;;;;5057080;28;20526;-74
2023/10/31 01:18:25;;;;;;;0.63;0.30;;;11.10;99.90;;;;;;5044389;28;20080;-74
2023/10/31 01:20:51;;;;;;;0.52;0.13;;;11.10;99.90;;;;;;5059717;28;20082;-73
2023/10/31 01:23:17;;;;;;;1.60;0.10;;;11.00;99.90;;;;;;5067925;28;20032;-73
2023/10/31 01:25:42;;;;;;;0.28;0.10;;;11.00;99.90;;;;;;5052428;28;20398;-73
2023/10/31 01:28:08;;;;;;;0.40;0.17;;;10.90;99.90;;;;;;5061037;28;20036;-71
2023/10/31 01:30:34;;;;;;;0.35;0.20;;;10.90;99.90;;;;;;5080487;28;20116;-73
2023/10/31 01:32:59;;;;;;;0.47;0.20;;;10.80;99.90;;;;;;5061285;28;20025;-73
2023/10/31 01:35:25;;;;;;;0.08;0.03;;;10.80;99.90;;;;;;5048348;28;20500;-73
2023/10/31 01:37:51;;;;;;;0.82;0.10;;;10.70;99.90;;;;;;5048185;28;20041;-73
2023/10/31 01:40:16;;;;;;;0.20;0.10;;;10.70;99.90;;;;;;5068541;28;20037;-73
2023/10/31 01:42:42;;;;;;;0.98;0.32;;;10.60;99.90;;;;;;5063343;28;20505;-73
2023/10/31 01:45:08;;;;;;;0.00;0.00;;;10.60;99.90;;;;;;5063321;28;20144;-73
2023/10/31 01:47:34;;;;;;;0.20;0.00;;;10.50;99.90;;;;;;5045022;28;20101;-73
2023/10/31 01:50:03;;;;;;;0.40;0.20;;;10.50;99.90;;;;;;5047168;28;20074;-72
2023/10/31 01:52:32;;;;;;;0.30;0.10;;;10.50;99.90;;;;;;5050003;28;20039;-72
2023/10/31 01:54:58;;;;;;;0.25;0.13;;;10.50;99.90;;;;;;5048482;28;20039;-72
2023/10/31 01:57:24;;;;;;;0.10;0.10;;;10.40;99.90;;;;;;5050023;28;20037;-72
2023/10/31 01:59:50;;;;;;;0.20;0.20;;;10.40;99.90;;;;;;5062997;28;20089;-73
2023/10/31 02:02:16;;;;;;;0.35;0.20;;;10.30;99.90;;;;;;5063461;28;20724;-73
2023/10/31 02:04:41;;;;;;;0.55;0.30;;;10.30;99.90;;;;;;5061790;28;20033;-72
2023/10/31 02:07:07;;;;;;;0.15;0.05;;;10.30;99.90;;;;;;5063958;28;20047;-72
2023/10/31 02:09:33;;;;;;;0.25;0.10;;;10.20;99.90;;;;;;5067431;28;20029;-73
2023/10/31 02:11:58;;;;;;;0.03;0.00;;;10.20;99.90;;;;;;5065047;28;20064;-73
2023/10/31 02:14:24;;;;;;;0.75;0.13;;;10.20;99.90;;;;;;5059627;28;20039;-73
2023/10/31 02:16:50;;;;;;;0.08;0.00;;;10.10;99.90;;;;;;5062278;28;20150;-73
2023/10/31 02:19:19;;;;;;;0.10;0.05;;;10.10;99.90;;;;;;5058982;28;20040;-74
2023/10/31 02:21:45;;;;;;;0.20;0.13;;;10.10;99.90;;;;;;5062434;28;20032;-73
2023/10/31 02:24:10;;;;;;;0.10;0.10;;;10.10;99.90;;;;;;5059416;28;20497;-73
2023/10/31 02:26:36;;;;;;;0.45;0.10;;;10.10;99.90;;;;;;5061606;28;20048;-73
2023/10/31 02:29:02;;;;;;;0.10;0.10;;;10.10;99.90;;;;;;5067016;28;20051;-73
2023/10/31 02:31:28;;;;;;;0.25;0.10;;;10.10;99.90;;;;;;5066876;28;20036;-74
2023/10/31 02:33:54;;;;;;;0.55;0.45;;;10.10;99.90;;;;;;5066292;28;20426;-73
2023/10/31 02:36:20;;;;;;;0.00;0.00;;;10.10;99.90;;;;;;5064480;28;20086;-74
2023/10/31 02:38:46;;;;;;;0.82;0.20;;;10.00;99.90;;;;;;5094300;28;20541;-73
2023/10/31 02:41:12;;;;;;;0.13;0.00;;;10.00;99.90;;;;;;5056306;28;20074;-73
2023/10/31 02:43:38;;;;;;;0.10;0.00;;;10.00;99.90;;;;;;5059262;28;20278;-73
2023/10/31 02:46:03;;;;;;;1.88;0.10;;;10.00;99.90;;;;;;5060377;28;20044;-73
2023/10/31 02:48:31;;;;;;;0.10;0.10;;;9.90;99.90;;;;;;5043621;28;20040;-73
2023/10/31 02:50:57;;;;;;;0.15;0.05;;;9.90;99.90;;;;;;5058671;28;20080;-73
2023/10/31 02:53:23;;;;;;;0.30;0.10;;;9.90;99.90;;;;;;5045274;28;20086;-74
2023/10/31 02:55:49;;;;;;;0.10;0.10;;;9.90;99.90;;;;;;5091267;28;20040;-73
2023/10/31 02:58:14;;;;;;;0.45;0.20;;;9.90;99.90;;;;;;5061156;28;20029;-74
2023/10/31 03:00:40;;;;;;;0.38;0.15;;;9.90;99.90;;;;;;5060770;28;20036;-74
2023/10/31 03:03:05;;;;;;;0.10;0.00;;;9.80;99.90;;;;;;5062568;28;20048;-74
2023/10/31 03:05:31;;;;;;;0.10;0.10;;;9.90;99.90;;;;;;5061515;28;20543;-74
2023/10/31 03:07:56;;;;;;;0.98;0.20;;;9.90;99.90;;;;;;5043827;28;20409;-74
2023/10/31 03:10:22;;;;;;;0.85;0.20;;;10.00;99.90;;;;;;5057381;28;20052;-74
2023/10/31 03:12:48;;;;;;;0.28;0.10;;;10.00;99.90;;;;;;5060256;28;20122;-74
2023/10/31 03:15:13;;;;;;;0.22;0.15;;;9.90;99.90;;;;;;5095097;28;20470;-74
2023/10/31 03:17:39;;;;;;;2.55;0.22;;;10.00;99.90;;;;;;5046476;28;20587;-74
2023/10/31 03:20:05;;;;;;;0.30;0.10;;;10.00;99.90;;;;;;5060105;28;20415;-74
2023/10/31 03:22:31;;;;;;;0.43;0.25;;;10.00;99.90;;;;;;5061401;28;20037;-74
2023/10/31 03:24:56;;;;;;;9.30;1.25;;;10.00;99.90;;;;;;5060029;28;20048;-74
2023/10/31 03:27:22;;;;;;;2.90;0.50;;;10.10;99.90;;;;;;5040342;28;20033;-74
2023/10/31 03:29:48;;;;;;;1.42;0.60;;;10.00;99.90;;;;;;5060999;28;20032;-74
2023/10/31 03:32:14;;;;;;;1.35;0.55;;;10.10;99.90;;;;;;5057533;28;20462;-74
2023/10/31 03:34:40;;;;;;;0.55;0.45;;;10.10;99.90;;;;;;5060726;28;20205;-73
2023/10/31 03:37:06;;;;;;;1.40;0.88;;;10.10;99.90;;;;;;5045566;28;20592;-74
2023/10/31 03:39:32;;;;;;;1.33;0.73;;;10.10;99.90;;;;;;5040694;28;20031;-73
2023/10/31 03:41:57;;;;;;;2.75;0.43;;;10.10;99.90;;;;;;5059865;28;20041;-74
2023/10/31 03:44:23;;;;;;;1.20;0.40;;;10.10;99.90;;;;;;5045467;28;20401;-74
2023/10/31 03:46:48;;;;;;;1.15;0.50;;;10.10;99.90;;;;;;5059472;28;20055;-74
2023/10/31 03:49:14;;;;;;;0.68;0.32;;;10.10;99.90;;;;;;5044797;28;20282;-74
2023/10/31 03:51:39;;;;;;;0.80;0.32;;;10.10;99.90;;;;;;5058076;28;22010;-74
2023/10/31 03:54:05;;;;;;;0.75;0.20;;;10.10;99.90;;;;;;5058217;28;20040;-74
2023/10/31 03:56:37;;;;;;;0.40;0.30;;;10.10;99.90;;;;;;5045014;28;20426;-75
2023/10/31 03:59:03;;;;;;;0.75;0.30;;;10.10;99.90;;;;;;5043087;28;20033;-74
2023/10/31 04:01:28;;;;;;;0.98;0.80;;;10.10;99.90;;;;;;5060492;28;20493;-74
2023/10/31 04:03:54;;;;;;;0.80;0.20;;;10.10;99.90;;;;;;5045447;28;20037;-74
2023/10/31 04:06:20;;;;;;;3.08;0.68;;;10.10;99.90;;;;;;5057750;28;20123;-74
2023/10/31 04:08:45;;;;;;;0.90;0.50;;;10.00;99.90;;;;;;5089186;28;20580;-74
2023/10/31 04:11:11;;;;;;;0.63;0.40;;;10.10;99.90;;;;;;5068999;28;20036;-74
2023/10/31 04:13:36;;;;;;;0.60;0.20;;;10.10;99.90;;;;;;5054319;28;20833;-74
2023/10/31 04:16:02;;;;;;;1.25;0.47;;;10.20;99.90;;;;;;5060461;28;20048;-73
2023/10/31 04:18:28;;;;;;;0.70;0.25;;;10.20;99.90;;;;;;5056426;28;20474;-74
2023/10/31 04:20:54;;;;;;;2.03;0.30;;;10.20;99.90;;;;;;5061339;28;20101;-74
2023/10/31 04:23:19;;;;;;;1.08;0.50;;;10.20;99.90;;;;;;5040670;28;20111;-74
2023/10/31 04:25:46;;;;;;;1.30;0.40;;;10.20;99.90;;;;;;5054949;28;20048;-74
2023/10/31 04:28:13;;;;;;;1.15;0.43;;;10.20;99.90;;;;;;5062267;28;20056;-74
2023/10/31 04:30:38;;;;;;;0.73;0.60;;;10.20;99.90;;;;;;5075513;28;20520;-74
2023/10/31 04:33:04;;;;;;;0.90;0.17;;;10.20;99.90;;;;;;5043917;28;20032;-74
2023/10/31 04:35:29;;;;;;;1.40;0.43;;;10.20;99.90;;;;;;5064349;28;20059;-74
2023/10/31 04:37:56;;;;;;;1.08;0.38;;;10.20;99.90;;;;;;5057683;28;20136;-74
2023/10/31 04:40:22;;;;;;;3.10;0.35;;;10.20;99.90;;;;;;5072905;28;20031;-74
2023/10/31 04:42:48;;;;;;;0.30;0.10;;;10.20;99.90;;;;;;5056870;28;20044;-74
2023/10/31 04:45:13;;;;;;;0.73;0.20;;;10.20;99.90;;;;;;5057232;28;20051;-74
2023/10/31 04:47:40;;;;;;;0.45;0.10;;;10.20;99.90;;;;;;5039323;28;20071;-74
2023/10/31 04:50:06;;;;;;;0.10;0.10;;;10.20;99.90;;;;;;5041360;28;20478;-74
2023/10/31 04:52:31;;;;;;;0.43;0.20;;;10.30;99.90;;;;;;5058520;28;20028;-74
2023/10/31 04:54:57;;;;;;;0.20;0.10;;;10.20;99.90;;;;;;5055695;28;20403;-74
2023/10/31 04:57:23;;;;;;;0.57;0.10;;;10.20;99.90;;;;;;5043454;28;20059;-74
2023/10/31 04:59:48;;;;;;;0.00;0.00;;;10.20;99.90;;;;;;5043800;28;20052;-74
2023/10/31 05:02:14;;;;;;;0.20;0.03;;;10.20;99.90;;;;;;5060758;28;20107;-74
2023/10/31 05:04:40;;;;;;;0.20;0.10;;;10.20;99.90;;;;;;5062239;28;20060;-75
2023/10/31 05:07:06;;;;;;;0.20;0.10;;;10.20;99.90;;;;;;5059901;28;20083;-74
2023/10/31 05:09:31;;;;;;;0.20;0.10;;;10.20;99.90;;;;;;5061841;28;20075;-74
2023/10/31 05:11:57;;;;;;;0.73;0.15;;;10.20;99.90;;;;;;5062606;28;20048;-74
2023/10/31 05:14:22;;;;;;;0.57;0.20;;;10.10;99.90;;;;;;5064738;28;20044;-74
2023/10/31 05:16:48;;;;;;;0.43;0.20;;;10.20;99.90;;;;;;5045489;28;20467;-74
2023/10/31 05:19:13;;;;;;;0.30;0.10;;;10.10;99.90;;;;;;5041105;28;20049;-74
2023/10/31 05:21:39;;;;;;;0.10;0.10;;;10.10;99.90;;;;;;5047179;28;20044;-74
2023/10/31 05:24:05;;;;;;;0.55;0.17;;;10.10;99.90;;;;;;5042091;28;20068;-74
2023/10/31 05:26:31;;;;;;;0.00;0.00;;;10.10;99.90;;;;;;5074877;28;20068;-74
2023/10/31 05:28:57;;;;;;;0.10;0.10;;;10.10;99.90;;;;;;5062086;28;20595;-74
2023/10/31 05:31:24;;;;;;;1.98;0.10;;;10.10;99.90;;;;;;5047958;28;20063;-74
2023/10/31 05:33:51;;;;;;;0.00;0.00;;;10.10;99.90;;;;;;5061134;28;21079;-74
2023/10/31 05:36:20;;;;;;;0.20;0.05;;;10.10;99.90;;;;;;5043660;28;20067;-74
2023/10/31 05:38:47;;;;;;;0.00;0.00;;;10.10;99.90;;;;;;5059127;28;20483;-74
2023/10/31 05:41:12;;;;;;;0.77;0.15;;;10.10;99.90;;;;;;5058208;28;22083;-74
2023/10/31 05:43:38;;;;;;;5.57;0.63;;;10.10;99.90;;;;;;5078650;28;20047;-74
2023/10/31 05:46:03;;;;;;;0.10;0.10;;;10.10;99.90;;;;;;5061125;28;20040;-74
2023/10/31 05:48:31;;;;;;;0.15;0.10;;;10.10;99.90;;;;;;5059830;28;20258;-74
2023/10/31 05:50:56;;;;;;;0.00;0.00;;;10.10;99.90;;;;;;5060014;28;20398;-74
2023/10/31 05:53:22;;;;;;;0.10;0.00;;;10.10;99.90;;;;;;5059967;28;20039;-74
2023/10/31 05:55:47;;;;;;;0.20;0.08;;;10.10;99.90;;;;;;5046231;28;20043;-74
2023/10/31 05:58:13;;;;;;;0.80;0.13;;;10.10;99.90;;;;;;5044941;28;20178;-74
2023/10/31 06:00:38;;;;;;;0.35;0.15;;;10.10;99.90;;;;;;5060783;28;20427;-75
2023/10/31 06:03:04;;;;;;;0.32;0.10;;;10.00;99.90;;;;;;5058752;28;20494;-74
2023/10/31 06:05:30;;;;;;;0.00;0.00;;;10.00;99.90;;;;;;5059630;28;20037;-74
2023/10/31 06:07:55;;;;;;;0.50;0.20;;;10.10;99.90;;;;;;5061811;28;20040;-74
2023/10/31 06:10:21;;;;;;;0.10;0.10;;;10.00;99.90;;;;;;5038716;28;20098;-74
2023/10/31 06:12:47;;;;;;;0.32;0.20;;;10.10;99.90;;;;;;5044820;28;20041;-74
2023/10/31 06:15:12;;;;;;;0.20;0.10;;;10.00;99.90;;;;;;5060644;28;20048;-74
2023/10/31 06:17:39;;;;;;;0.20;0.10;;;10.00;99.90;;;;;;5058639;28;20036;-74
2023/10/31 06:20:07;;;;;;;0.30;0.10;;;10.00;99.90;;;;;;5047439;28;20083;-74
2023/10/31 06:22:33;;;;;;;0.52;0.10;;;10.00;99.90;;;;;;5061214;28;20502;-74
2023/10/31 06:24:58;;;;;;;0.85;0.20;;;10.10;99.90;;;;;;5061206;28;20577;-75
2023/10/31 06:27:24;;;;;;;0.20;0.20;;;10.00;99.90;;;;;;5061238;28;20195;-74
2023/10/31 06:29:49;;;;;;;1.25;0.20;;;10.10;99.90;;;;;;5079266;28;20036;-74
2023/10/31 06:32:15;;;;;;;0.25;0.20;;;10.00;99.90;;;;;;5064937;28;20658;-74
2023/10/31 06:34:40;;;;;;;0.52;0.15;;;10.10;99.90;;;;;;5064259;28;20603;-74
2023/10/31 06:37:06;;;;;;;0.60;0.30;;;10.10;99.90;;;;;;5043757;28;20087;-74
2023/10/31 06:39:32;;;;;;;0.57;0.25;;;10.00;99.90;;;;;;5092192;28;20147;-74
2023/10/31 06:41:58;;;;;;;0.57;0.30;;;10.00;99.90;;;;;;5061559;28;20024;-74
2023/10/31 06:44:23;;;;;;;0.25;0.20;;;10.10;99.90;;;;;;5060157;28;20398;-74
2023/10/31 06:46:49;;;;;;;0.45;0.20;;;10.10;99.90;;;;;;5043090;28;20048;-74
2023/10/31 06:49:15;;;;;;;1.08;0.40;;;10.10;99.90;;;;;;5060578;28;20044;-74
2023/10/31 06:51:41;;;;;;;0.50;0.28;;;10.10;99.90;;;;;;5058215;28;20040;-74
2023/10/31 06:54:07;;;;;;;0.82;0.30;;;10.10;99.90;;;;;;5059910;28;20044;-74
2023/10/31 06:56:32;;;;;;;0.77;0.40;;;10.10;99.90;;;;;;5048339;28;20555;-74
2023/10/31 06:58:58;;;;;;;2.15;0.35;;;10.10;99.90;;;;;;5060856;28;21269;-74
2023/10/31 07:01:24;;;;;;;1.23;0.60;;;10.10;99.90;;;;;;5059855;28;20033;-74
2023/10/31 07:03:49;;;;;;;1.30;0.55;;;10.10;99.90;;;;;;5055950;28;20040;-74
2023/10/31 07:06:15;;;;;;;0.93;0.47;;;10.10;99.90;;;;;;5062490;28;20130;-74
2023/10/31 07:08:41;;;;;;;1.27;0.60;;;10.20;99.90;;;;;;5061024;28;20045;-72
2023/10/31 07:11:06;;;;;;;1.77;0.68;;;10.20;99.90;;;;;;5057304;28;20040;-75
2023/10/31 07:13:32;;;;;;;1.92;0.73;;;10.20;99.90;;;;;;5053586;28;20102;-74
2023/10/31 07:15:57;;;;;;;1.45;0.50;;;10.20;99.90;;;;;;5059147;28;20042;-74
2023/10/31 07:18:23;;;;;;;1.35;0.65;;;10.20;99.90;;;;;;5038975;28;20502;-74
2023/10/31 07:20:49;;;;;;;1.45;0.63;;;10.20;99.90;;;;;;5053746;28;20040;-73
2023/10/31 07:23:14;;;;;;;1.27;0.60;;;10.20;99.90;;;;;;5055726;28;20036;-73
2023/10/31 07:25:40;;;;;;;1.08;0.55;;;10.30;99.90;;;;;;5054714;28;20166;-73
2023/10/31 07:28:06;;;;;;;1.20;0.65;;;10.30;99.90;;;;;;5066340;28;20032;-74
2023/10/31 07:30:32;;;;;;;2.85;0.80;;;10.30;99.90;;;;;;5036323;28;20055;-74
2023/10/31 07:32:57;;;;;;;1.52;0.55;;;10.30;99.90;;;;;;5049765;28;20525;-74
2023/10/31 07:35:23;;;;;;;0.70;0.40;;;10.30;99.90;;;;;;5042715;28;20021;-73
2023/10/31 07:37:48;;;;;;;4.07;0.50;;;10.40;99.90;;;;;;5034780;28;20284;-74
2023/10/31 07:40:14;;;;;;;0.90;0.50;;;10.40;99.90;;;;;;5070617;28;20031;-73
2023/10/31 07:42:39;;;;;;;1.50;0.75;;;10.40;99.90;;;;;;5053862;28;20102;-74
2023/10/31 07:45:06;;;;;;;4.07;0.80;;;10.40;99.90;;;;;;5053730;28;20477;-74
2023/10/31 07:47:31;;;;;;;1.35;0.60;;;10.50;99.90;;;;;;5056974;28;20132;-74
2023/10/31 07:49:57;;;;;;;1.48;0.60;;;10.50;99.90;;;;;;5054152;28;20202;-75
2023/10/31 07:52:22;;;;;;;1.13;0.68;;;10.50;99.90;;;;;;5056414;28;20045;-73
2023/10/31 07:54:48;;;;;;;2.58;0.63;;;10.60;99.90;;;;;;5056979;28;20040;-74
2023/10/31 07:57:13;;;;;;;0.85;0.40;;;10.60;99.90;;;;;;5057019;28;20328;-73
2023/10/31 07:59:39;;;;;;;1.38;0.32;;;10.60;99.90;;;;;;5041043;28;20397;-73
2023/10/31 08:02:05;;;;;;;2.75;0.30;;;10.60;99.90;;;;;;5087380;28;20398;-74
2023/10/31 08:04:31;;;;;;;0.55;0.32;;;10.60;99.90;;;;;;5051882;28;20029;-73
2023/10/31 08:06:57;;;;;;;2.60;0.47;;;10.60;99.90;;;;;;5071108;28;20133;-73
2023/10/31 08:09:22;;;;;;;0.38;0.28;;;10.60;99.90;;;;;;5058041;28;20056;-73
2023/10/31 08:11:48;;;;;;;1.40;0.45;;;10.70;99.90;;;;;;5054252;28;20048;-74
2023/10/31 08:14:15;;;;;;;0.40;0.30;;;10.70;99.90;;;;;;5049992;28;20132;-74
2023/10/31 08:16:41;;;;;;;0.95;0.20;;;10.70;99.90;;;;;;5054165;28;20036;-74
2023/10/31 08:19:07;;;;;;;0.10;0.00;;;10.80;99.90;;;;;;5085394;28;20056;-74
2023/10/31 08:21:34;;;;;;;0.00;0.00;;;10.70;99.90;;;;;;5052640;28;20036;-74
2023/10/31 08:24:02;;;;;;;0.03;0.03;;;10.80;99.90;;;;;;5071854;28;20033;-74
2023/10/31 08:26:28;;;;;;;0.20;0.10;;;10.80;99.90;;;;;;5037550;28;20692;-77
2023/10/31 08:28:53;;;;;;;0.00;0.00;;;10.80;99.90;;;;;;5055813;28;20131;-77
2023/10/31 08:31:20;;;;;;;0.20;0.10;;;10.80;99.90;;;;;;5033905;28;20071;-74
2023/10/31 08:33:45;;;;;;;0.05;0.03;;;10.90;99.90;;;;;;5037430;28;20040;-73
2023/10/31 08:36:11;;;;;;;0.22;0.10;;;10.90;99.90;;;;;;5048146;28;20233;-75
2023/10/31 08:38:36;;;;;;;0.22;0.10;;;10.90;99.90;;;;;;5054408;28;20032;-74
2023/10/31 08:41:02;;;;;;;2.50;0.20;;;10.90;99.90;;;;;;5057618;28;20048;-74
2023/10/31 08:43:28;;;;;;;1.95;0.10;;;10.90;99.90;;;;;;5090390;28;20064;-74
2023/10/31 08:45:53;;;;;;;0.30;0.15;;;10.90;99.90;;;;;;5042923;28;20036;-74
2023/10/31 08:48:19;;;;;;;0.82;0.40;;;11.00;99.90;;;;;;5040311;28;20462;-74
2023/10/31 08:50:45;;;;;;;0.45;0.22;;;10.90;99.90;;;;;;5055704;28;20037;-74
2023/10/31 08:53:10;;;;;;;0.25;0.10;;;11.00;99.90;;;;;;5071505;28;20043;-75
2023/10/31 08:55:36;;;;;;;0.10;0.10;;;11.00;99.90;;;;;;5056280;28;20480;-74
2023/10/31 08:58:02;;;;;;;0.25;0.10;;;11.00;99.90;;;;;;5055757;28;20028;-75
2023/10/31 09:00:28;;;;;;;0.00;0.00;;;11.00;99.90;;;;;;5039440;28;20040;-74
2023/10/31 09:02:54;;;;;;;0.10;0.10;;;10.90;99.90;;;;;;5060039;28;20054;-75
2023/10/31 09:05:20;;;;;;;0.52;0.10;;;10.90;99.90;;;;;;5094122;28;20044;-75
2023/10/31 09:07:46;;;;;;;0.57;0.20;;;11.00;99.90;;;;;;5056484;28;20040;-74
2023/10/31 09:10:12;;;;;;;0.30;0.10;;;11.00;99.90;;;;;;5058781;28;20037;-75
2023/10/31 09:12:38;;;;;;;0.00;0.00;;;11.00;99.90;;;;;;5039965;28;20040;-75
2023/10/31 09:15:05;;;;;;;0.30;0.10;;;11.10;99.90;;;;;;5034044;28;20383;-78
2023/10/31 09:17:30;;;;;;;0.20;0.10;;;11.10;99.90;;;;;;5056479;28;20130;-75
2023/10/31 09:19:56;;;;;;;0.52;0.13;;;11.10;99.90;;;;;;5039738;28;20521;-74
2023/10/31 09:22:22;;;;;;;0.10;0.08;;;11.10;99.90;;;;;;5052504;28;20502;-75
2023/10/31 09:24:47;;;;;;;0.00;0.00;;;11.10;99.90;;;;;;5059572;28;20044;-74
2023/10/31 09:27:13;;;;;;;0.70;0.13;;;11.10;99.90;;;;;;5049935;28;20044;-75
2023/10/31 09:29:38;;;;;;;0.40;0.20;;;11.10;99.90;;;;;;5038381;28;20036;-75
2023/10/31 09:32:06;;;;;;;0.65;0.10;;;11.10;99.90;;;;;;5051717;28;20064;-75
2023/10/31 09:34:31;;;;;;;0.00;0.00;;;11.10;99.90;;;;;;5050329;28;20045;-74
2023/10/31 09:36:58;;;;;;;0.50;0.10;;;11.20;99.90;;;;;;5069089;28;20040;-74
2023/10/31 09:39:24;;;;;;;0.10;0.00;;;11.20;99.90;;;;;;5045199;28;20119;-74
2023/10/31 09:41:50;;;;;;;0.00;0.00;;;11.20;99.90;;;;;;5067780;28;20382;-74
2023/10/31 09:44:15;;;;;;;0.00;0.00;;;11.20;99.90;;;;;;5072152;28;20047;-74
2023/10/31 09:46:41;;;;;;;0.25;0.10;;;11.20;99.90;;;;;;5053820;28;20205;-74
2023/10/31 09:49:08;;;;;;;0.00;0.00;;;11.20;99.90;;;;;;5054014;28;20044;-74
2023/10/31 09:51:34;;;;;;;0.00;0.00;;;11.10;99.90;;;;;;5071153;28;20525;-74
2023/10/31 09:54:02;;;;;;;0.00;0.00;;;11.20;99.90;;;;;;5052524;28;20044;-74
2023/10/31 09:56:34;;;;;;;0.00;0.00;;;11.10;99.90;;;;;;5049686;28;20509;-74
2023/10/31 09:59:00;;;;;;;0.00;0.00;;;11.00;99.90;;;;;;5076446;28;20059;-74
2023/10/31 10:01:26;;;;;;;0.00;0.00;;;11.10;99.90;;;;;;5079960;28;20032;-74
2023/10/31 10:03:52;;;;;;;0.00;0.00;;;11.00;99.90;;;;;;5065047;28;20052;-74
2023/10/31 10:06:21;;;;;;;0.00;0.00;;;11.00;99.90;;;;;;5070952;28;20044;-74
2023/10/31 10:08:46;;;;;;;0.00;0.00;;;11.10;99.90;;;;;;5053495;28;20518;-74
2023/10/31 10:11:12;;;;;;;0.38;0.10;;;11.00;99.90;;;;;;5069841;28;20620;-74
2023/10/31 10:13:39;;;;;;;0.00;0.00;;;11.10;99.90;;;;;;5071266;28;20040;-74
2023/10/31 10:16:05;;;;;;;0.40;0.10;;;11.10;99.90;;;;;;5053686;28;20044;-74
2023/10/31 10:18:34;;;;;;;0.00;0.00;;;11.10;99.90;;;;;;5053078;28;20044;-74
2023/10/31 10:21:02;;;;;;;4.57;0.30;;;11.10;99.90;;;;;;5053575;28;20036;-74
2023/10/31 10:23:29;;;;;;;0.15;0.00;;;11.10;99.90;;;;;;5068490;28;20045;-74
2023/10/31 10:25:56;;;;;;;0.00;0.00;;;11.00;99.90;;;;;;5085308;28;20032;-74
2023/10/31 10:28:24;;;;;;;0.00;0.00;;;11.00;99.90;;;;;;5069265;28;20040;-74
2023/10/31 10:30:51;;;;;;;0.10;0.03;;;11.00;99.90;;;;;;5077463;28;20044;-74
2023/10/31 10:33:17;;;;;;;0.00;0.00;;;10.90;99.90;;;;;;5069892;28;20055;-74
2023/10/31 10:35:43;;;;;;;0.50;0.08;;;10.90;99.90;;;;;;5070180;28;20036;-74
2023/10/31 10:38:14;;;;;;;0.15;0.00;;;11.00;99.90;;;;;;5066392;28;20048;-74
2023/10/31 10:40:42;;;;;;;1.17;0.08;;;11.00;99.90;;;;;;5100417;27;20481;-74
2023/10/31 10:43:13;;;;;;;2.50;0.20;;;10.90;99.90;;;;;;5087027;28;20047;-74
2023/10/31 10:45:43;;;;;;;0.00;0.00;;;10.90;99.90;;;;;;5075124;28;20036;-74
2023/10/31 10:48:13;;;;;;;0.00;0.00;;;11.00;99.90;;;;;;5047929;28;20040;-74
2023/10/31 10:50:42;;;;;;;0.40;0.10;;;11.00;99.90;;;;;;5069533;28;20410;-74
2023/10/31 10:53:21;;;;;;;0.00;0.00;;;11.00;99.90;;;;;;5073236;28;20071;-74
2023/10/31 10:55:51;;;;;;;1.27;0.00;;;11.00;99.90;;;;;;5052540;28;20055;-74
2023/10/31 10:58:53;;;;;;;0.30;0.00;;;11.00;99.90;;;;;;5064145;28;20593;-74
2023/10/31 11:01:19;;;;;;;1.73;0.10;;;11.00;99.90;;;;;;5063377;28;20036;-74
2023/10/31 11:03:46;;;;;;;0.10;0.00;;;11.10;99.90;;;;;;5052411;28;20067;-74
2023/10/31 11:06:13;;;;;;;0.10;0.00;;;11.10;99.90;;;;;;5053014;28;20044;-74
2023/10/31 11:08:40;;;;;;;0.13;0.10;;;11.20;99.90;;;;;;5052036;28;20522;-74
2023/10/31 11:11:06;;;;;;;0.10;0.08;;;11.20;99.90;;;;;;5071267;28;20047;-74
2023/10/31 11:13:32;;;;;;;0.08;0.08;;;11.20;99.90;;;;;;5069055;28;20078;-75
2023/10/31 11:16:04;;;;;;;0.20;0.10;;;11.20;99.90;;;;;;5051765;28;20043;-74
2023/10/31 11:18:30;;;;;;;0.00;0.00;;;11.10;99.90;;;;;;5051045;28;20841;-75
2023/10/31 11:20:56;;;;;;;1.02;0.20;;;11.10;99.90;;;;;;5067824;28;20432;-74
2023/10/31 11:23:21;;;;;;;0.10;0.00;;;11.10;99.90;;;;;;5068861;28;20032;-75
2023/10/31 11:25:54;;;;;;;0.85;0.10;;;11.10;99.90;;;;;;5052533;28;20066;-74
2023/10/31 11:28:20;;;;;;;0.00;0.00;;;11.00;99.90;;;;;;5092400;28;20376;-74
2023/10/31 11:30:48;;;;;;;0.00;0.00;;;11.00;99.90;;;;;;5076057;28;20048;-74
2023/10/31 11:33:18;;;;;;;0.25;0.13;;;11.00;99.90;;;;;;5066557;28;20559;-74
2023/10/31 11:35:46;;;;;;;0.00;0.00;;;11.10;99.90;;;;;;5052460;28;20040;-74
2023/10/31 11:38:12;;;;;;;1.35;0.15;;;11.10;99.90;;;;;;5068373;28;20037;-74
2023/10/31 11:41:00;;;;;;;0.00;0.00;;;11.20;99.90;;;;;;5068336;28;20037;-74
2023/10/31 11:43:25;;;;;;;0.32;0.20;;;11.20;99.90;;;;;;5068055;28;20058;-74
2023/10/31 11:45:52;;;;;;;0.00;0.00;;;11.20;99.90;;;;;;5053599;28;20045;-74
2023/10/31 11:48:37;;;;;;;0.20;0.10;;;11.20;99.90;;;;;;5051643;28;20110;-75
2023/10/31 11:51:03;;;;;;;0.15;0.10;;;11.30;99.90;;;;;;5068127;28;20106;-74
2023/10/31 11:53:29;;;;;;;0.38;0.20;;;11.30;99.90;;;;;;5071025;28;20028;-74
2023/10/31 11:55:56;;;;;;;0.38;0.10;;;11.40;99.90;;;;;;5076142;28;20041;-74
2023/10/31 11:58:25;;;;;;;0.10;0.03;;;11.40;99.90;;;;;;5051310;28;20036;-74
2023/10/31 12:01:03;;;;;;;0.03;0.00;;;11.40;99.90;;;;;;5058670;28;20036;-74
2023/10/31 12:03:40;;;;;;;0.00;0.00;;;11.40;99.90;;;;;;5075798;28;20071;-75
2023/10/31 12:06:07;;;;;;;0.40;0.10;;;11.30;99.90;;;;;;5067620;28;20040;-75
2023/10/31 12:08:35;;;;;;;0.22;0.03;;;11.30;99.90;;;;;;5055437;28;20116;-75
2023/10/31 12:11:05;;;;;;;0.17;0.10;;;11.20;99.90;;;;;;5057584;28;20054;-79
2023/10/31 12:13:30;;;;;;;0.10;0.10;;;11.20;99.90;;;;;;5059799;28;20513;-73
2023/10/31 12:15:58;;;;;;;0.20;0.10;;;11.20;99.90;;;;;;5056060;28;20041;-73
2023/10/31 12:18:23;;;;;;;0.17;0.00;;;11.20;99.90;;;;;;5089198;28;20029;-74
2023/10/31 12:20:50;;;;;;;0.00;0.00;;;11.20;99.90;;;;;;5059508;28;20371;-74
2023/10/31 12:23:17;;;;;;;0.00;0.00;;;11.20;99.90;;;;;;5044804;28;20048;-74
2023/10/31 12:25:51;;;;;;;0.08;0.08;;;11.20;99.90;;;;;;5054174;28;20040;-74
2023/10/31 12:28:18;;;;;;;2.03;0.17;;;11.20;99.90;;;;;;5060913;28;20312;-74
2023/10/31 12:30:54;;;;;;;0.05;0.05;;;11.30;99.90;;;;;;5059287;28;20033;-74
2023/10/31 12:33:21;;;;;;;0.10;0.10;;;11.20;99.90;;;;;;5057208;28;20063;-74
2023/10/31 12:35:48;;;;;;;0.20;0.10;;;11.20;99.90;;;;;;5060201;28;20513;-74
2023/10/31 12:38:14;;;;;;;0.10;0.10;;;11.30;99.90;;;;;;5060524;28;20041;-73
2023/10/31 12:40:42;;;;;;;0.20;0.00;;;11.20;99.90;;;;;;5043349;28;20143;-74
2023/10/31 12:43:08;;;;;;;0.15;0.13;;;11.30;99.90;;;;;;5040403;28;20394;-73